Terminal Aerodrome Forecast
Issued by NWS Brownsville, TX

Home | Current Version | Previous Version | Text Only | Print | Product List | Glossary On
Versions: 1 2 3 4 5 6 7 8 9 10 11 12 13 14 15 16 17 18
000
FTUS44 KBRO 031455 AAA
TAFHRL
TAF AMD
KHRL 031455Z 0315/0412 VRB03KT 1/2SM FG VV002
     FM031630 16006KT 3/4SM BR BKN006
     FM031800 16010G15KT 6SM BR BKN012
     FM032000 16017G22KT P6SM BKN020
     FM040200 16015G20KT 5SM BR BKN012
     FM040700 15011G18KT 5SM BR OVC008=

USA.gov is the U.S. government's official web portal to all federal, state and local government web resources and services.